Time,TemperatureF,DewpointF,PressureIn,WindDirection,WindDirectionDegrees,WindSpeedMPH,WindSpeedGustMPH,Humidity,HourlyPrecipIn,Conditions,Clouds,dailyrainin,SoftwareType,DateUTC
2013-01-30 00:21:00,25.0,21.0,-100.00,SW,215,0.0,8.0,85,0.00,,,0.00,,2013-01-30 07:21:00,
2013-01-30 00:31:00,25.0,21.0,-100.00,SW,215,0.0,8.0,85,0.00,,,0.00,,2013-01-30 07:31:00,
2013-01-30 00:41:00,25.0,21.0,-100.00,SW,215,0.0,8.0,85,0.00,,,0.00,,2013-01-30 07:41:00,
2013-01-30 00:52:00,25.0,21.0,-100.00,SW,215,0.0,8.0,85,0.00,,,0.00,,2013-01-30 07:52:00,
2013-01-30 01:21:00,26.0,21.0,-100.00,WSW,255,0.0,8.0,82,0.00,,,0.00,,2013-01-30 08:21:00,
2013-01-30 01:32:00,26.0,21.0,-100.00,WSW,255,0.0,8.0,82,0.00,,,0.00,,2013-01-30 08:32:00,
2013-01-30 01:42:00,26.0,21.0,-100.00,WSW,255,0.0,8.0,82,0.00,,,0.00,,2013-01-30 08:42:00,
2013-01-30 01:52:00,26.0,21.0,-100.00,WSW,255,0.0,8.0,82,0.00,,,0.00,,2013-01-30 08:52:00,
2013-01-30 02:21:00,27.0,23.0,-100.00,ENE,60,0.0,7.0,83,0.00,,,0.00,,2013-01-30 09:21:00,
2013-01-30 02:32:00,27.0,23.0,-100.00,ENE,60,0.0,7.0,83,0.00,,,0.00,,2013-01-30 09:32:00,
2013-01-30 02:41:00,27.0,23.0,-100.00,ENE,60,0.0,7.0,83,0.00,,,0.00,,2013-01-30 09:41:00,
2013-01-30 02:51:00,27.0,23.0,-100.00,ENE,60,0.0,7.0,83,0.00,,,0.00,,2013-01-30 09:51:00,
2013-01-30 03:21:00,28.0,24.0,-100.00,WSW,257,3.0,12.0,84,0.00,,,0.00,,2013-01-30 10:21:00,
2013-01-30 03:31:00,28.0,24.0,-100.00,WSW,257,3.0,12.0,84,0.00,,,0.00,,2013-01-30 10:31:00,
2013-01-30 03:41:00,28.0,24.0,-100.00,WSW,257,3.0,12.0,84,0.00,,,0.00,,2013-01-30 10:41:00,
2013-01-30 03:52:00,28.0,24.0,-100.00,WSW,257,3.0,12.0,84,0.00,,,0.00,,2013-01-30 10:52:00,
2013-01-30 04:22:00,28.0,24.0,-100.00,SW,220,5.0,15.0,86,0.00,,,0.00,,2013-01-30 11:22:00,
2013-01-30 04:32:00,28.0,24.0,-100.00,SW,220,5.0,15.0,86,0.00,,,0.00,,2013-01-30 11:32:00,
2013-01-30 04:42:00,28.0,24.0,-100.00,SW,220,5.0,15.0,86,0.00,,,0.00,,2013-01-30 11:42:00,
2013-01-30 04:52:00,28.0,24.0,-100.00,SW,220,5.0,15.0,86,0.00,,,0.00,,2013-01-30 11:52:00,
2013-01-30 05:22:00,29.0,24.0,-100.00,SW,233,5.0,14.0,80,0.00,,,-99.99,,2013-01-30 12:22:00,
2013-01-30 05:32:00,29.0,24.0,-100.00,SW,233,5.0,14.0,80,0.00,,,-99.99,,2013-01-30 12:32:00,
2013-01-30 05:42:00,29.0,24.0,-100.00,SW,233,5.0,14.0,80,0.00,,,-99.99,,2013-01-30 12:42:00,
2013-01-30 06:22:00,29.0,25.0,-100.00,NNW,337,4.0,13.0,83,0.00,,,0.00,,2013-01-30 13:22:00,
2013-01-30 06:32:00,29.0,25.0,-100.00,NNW,337,4.0,13.0,83,0.00,,,0.00,,2013-01-30 13:32:00,
2013-01-30 06:42:00,29.0,25.0,-100.00,NNW,337,4.0,13.0,83,0.00,,,0.00,,2013-01-30 13:42:00,
2013-01-30 06:52:00,29.0,25.0,-100.00,NNW,337,4.0,13.0,83,0.00,,,0.00,,2013-01-30 13:52:00,
2013-01-30 07:22:00,28.0,24.0,-100.00,NNW,340,4.0,14.0,86,0.00,,,0.00,,2013-01-30 14:22:00,
2013-01-30 07:32:00,28.0,24.0,-100.00,NNW,340,4.0,14.0,86,0.00,,,0.00,,2013-01-30 14:32:00,
2013-01-30 07:42:00,28.0,24.0,-100.00,NNW,340,4.0,14.0,86,0.00,,,0.00,,2013-01-30 14:42:00,
2013-01-30 07:52:00,28.0,24.0,-100.00,NNW,340,4.0,14.0,86,0.00,,,0.00,,2013-01-30 14:52:00,
2013-01-30 08:23:00,29.0,25.0,-100.00,SE,141,1.0,12.0,84,0.00,,,0.00,,2013-01-30 15:23:00,
2013-01-30 08:33:00,29.0,25.0,-100.00,SE,141,1.0,12.0,84,0.00,,,0.00,,2013-01-30 15:33:00,
2013-01-30 08:43:00,29.0,25.0,-100.00,SE,141,1.0,12.0,84,0.00,,,0.00,,2013-01-30 15:43:00,
2013-01-30 08:52:00,29.0,25.0,-100.00,SE,141,1.0,12.0,84,0.00,,,0.00,,2013-01-30 15:52:00,
2013-01-30 09:23:00,30.0,25.0,-100.00,WSW,246,6.0,13.0,80,0.00,,,0.00,,2013-01-30 16:23:00,
2013-01-30 09:32:00,30.0,25.0,-100.00,WSW,246,6.0,13.0,80,0.00,,,0.00,,2013-01-30 16:32:00,
2013-01-30 09:42:00,30.0,25.0,-100.00,WSW,246,6.0,13.0,80,0.00,,,0.00,,2013-01-30 16:42:00,
2013-01-30 09:51:00,30.0,25.0,-100.00,WSW,246,6.0,13.0,80,0.00,,,0.00,,2013-01-30 16:51:00,
2013-01-30 10:22:00,31.0,25.0,-100.00,South,179,4.0,15.0,79,0.00,,,0.00,,2013-01-30 17:22:00,
2013-01-30 10:32:00,31.0,25.0,-100.00,South,179,4.0,15.0,79,0.00,,,0.00,,2013-01-30 17:32:00,
2013-01-30 10:42:00,31.0,25.0,-100.00,South,179,4.0,15.0,79,0.00,,,0.00,,2013-01-30 17:42:00,
2013-01-30 10:52:00,31.0,25.0,-100.00,South,179,4.0,15.0,79,0.00,,,0.00,,2013-01-30 17:52:00,
2013-01-30 11:22:00,32.0,25.0,-100.00,NW,311,3.0,11.0,75,0.00,,,0.00,,2013-01-30 18:22:00,
2013-01-30 11:33:00,32.0,25.0,-100.00,NW,311,3.0,11.0,75,0.00,,,0.00,,2013-01-30 18:33:00,
2013-01-30 11:42:00,32.0,25.0,-100.00,NW,311,3.0,11.0,75,0.00,,,0.00,,2013-01-30 18:42:00,
2013-01-30 11:51:00,32.0,25.0,-100.00,NW,311,3.0,11.0,75,0.00,,,0.00,,2013-01-30 18:51:00,
2013-01-30 12:22:00,33.0,25.0,-100.00,SW,215,2.0,10.0,72,0.00,,,0.00,,2013-01-30 19:22:00,
2013-01-30 12:32:00,33.0,25.0,-100.00,SW,215,2.0,10.0,72,0.00,,,0.00,,2013-01-30 19:32:00,
2013-01-30 12:42:00,33.0,25.0,-100.00,SW,215,2.0,10.0,72,0.00,,,0.00,,2013-01-30 19:42:00,
2013-01-30 12:52:00,33.0,25.0,-100.00,SW,215,2.0,10.0,72,0.00,,,0.00,,2013-01-30 19:52:00,
2013-01-30 13:22:00,32.0,23.0,-100.00,WSW,239,4.0,14.0,68,0.00,,,0.00,,2013-01-30 20:22:00,
2013-01-30 13:33:00,32.0,23.0,-100.00,WSW,239,4.0,14.0,68,0.00,,,0.00,,2013-01-30 20:33:00,
2013-01-30 13:42:00,32.0,23.0,-100.00,WSW,239,4.0,14.0,68,0.00,,,0.00,,2013-01-30 20:42:00,
2013-01-30 13:52:00,32.0,23.0,-100.00,WSW,239,4.0,14.0,68,0.00,,,0.00,,2013-01-30 20:52:00,
2013-01-30 14:22:00,32.0,23.0,-100.00,WNW,283,4.0,11.0,69,0.00,,,0.00,,2013-01-30 21:22:00,
2013-01-30 14:32:00,32.0,23.0,-100.00,WNW,283,4.0,11.0,69,0.00,,,0.00,,2013-01-30 21:32:00,
2013-01-30 14:42:00,32.0,23.0,-100.00,WNW,283,4.0,11.0,69,0.00,,,0.00,,2013-01-30 21:42:00,
2013-01-30 14:52:00,32.0,23.0,-100.00,WNW,283,4.0,11.0,69,0.00,,,0.00,,2013-01-30 21:52:00,
2013-01-30 15:22:00,33.0,25.0,-100.00,NW,324,4.0,13.0,73,0.00,,,0.00,,2013-01-30 22:22:00,
2013-01-30 15:32:00,33.0,25.0,-100.00,NW,324,4.0,13.0,73,0.00,,,0.00,,2013-01-30 22:32:00,
2013-01-30 15:41:00,33.0,25.0,-100.00,NW,324,4.0,13.0,73,0.00,,,0.00,,2013-01-30 22:41:00,
2013-01-30 15:52:00,33.0,25.0,-100.00,NW,324,4.0,13.0,73,0.00,,,0.00,,2013-01-30 22:52:00,
2013-01-30 16:22:00,32.0,25.0,-100.00,NNE,13,3.0,13.0,75,0.00,,,0.00,,2013-01-30 23:22:00,
2013-01-30 16:32:00,32.0,25.0,-100.00,NNE,13,3.0,13.0,75,0.00,,,0.00,,2013-01-30 23:32:00,
2013-01-30 16:42:00,32.0,25.0,-100.00,NNE,13,3.0,13.0,75,0.00,,,0.00,,2013-01-30 23:42:00,
2013-01-30 16:52:00,32.0,25.0,-100.00,NNE,13,3.0,13.0,75,0.00,,,0.00,,2013-01-30 23:52:00,
2013-01-30 17:21:00,32.0,27.0,-100.00,SE,137,3.0,13.0,80,0.00,,,0.00,,2013-01-31 00:21:00,
2013-01-30 17:32:00,32.0,27.0,-100.00,SE,137,3.0,13.0,80,0.00,,,0.00,,2013-01-31 00:32:00,
2013-01-30 17:42:00,32.0,27.0,-100.00,SE,137,3.0,13.0,80,0.00,,,0.00,,2013-01-31 00:42:00,
2013-01-30 17:52:00,32.0,27.0,-100.00,SE,137,3.0,13.0,80,0.00,,,0.00,,2013-01-31 00:52:00,
2013-01-30 18:21:00,31.0,27.0,-100.00,NW,325,1.0,10.0,85,0.00,,,0.00,,2013-01-31 01:21:00,
2013-01-30 18:31:00,31.0,27.0,-100.00,NW,325,1.0,10.0,85,0.00,,,0.00,,2013-01-31 01:31:00,
2013-01-30 18:41:00,31.0,27.0,-100.00,NW,325,1.0,10.0,85,0.00,,,0.00,,2013-01-31 01:41:00,
2013-01-30 18:52:00,31.0,27.0,-100.00,NW,325,1.0,10.0,85,0.00,,,0.00,,2013-01-31 01:52:00,
2013-01-30 19:21:00,31.0,27.0,-100.00,NNW,327,3.0,8.0,84,0.00,,,0.00,,2013-01-31 02:21:00,
2013-01-30 19:32:00,31.0,27.0,-100.00,NNW,327,3.0,8.0,84,0.00,,,0.00,,2013-01-31 02:32:00,
2013-01-30 19:41:00,31.0,27.0,-100.00,NNW,327,3.0,8.0,84,0.00,,,0.00,,2013-01-31 02:41:00,
2013-01-30 19:52:00,31.0,27.0,-100.00,NNW,327,3.0,8.0,84,0.00,,,0.00,,2013-01-31 02:52:00,
2013-01-30 20:21:00,31.0,26.0,-100.00,South,183,2.0,8.0,82,0.00,,,0.00,,2013-01-31 03:21:00,
2013-01-30 20:32:00,31.0,26.0,-100.00,South,183,2.0,8.0,82,0.00,,,0.00,,2013-01-31 03:32:00,
2013-01-30 20:41:00,31.0,26.0,-100.00,South,183,2.0,8.0,82,0.00,,,0.00,,2013-01-31 03:41:00,
2013-01-30 20:51:00,31.0,26.0,-100.00,South,183,2.0,8.0,82,0.00,,,0.00,,2013-01-31 03:51:00,
2013-01-30 21:22:00,32.0,26.0,-100.00,North,352,1.0,7.0,78,0.00,,,0.00,,2013-01-31 04:22:00,
2013-01-30 21:31:00,32.0,26.0,-100.00,North,352,1.0,7.0,78,0.00,,,0.00,,2013-01-31 04:31:00,
2013-01-30 21:41:00,32.0,26.0,-100.00,North,352,1.0,7.0,78,0.00,,,0.00,,2013-01-31 04:41:00,
2013-01-30 21:51:00,32.0,26.0,-100.00,North,352,1.0,7.0,78,0.00,,,0.00,,2013-01-31 04:51:00,
2013-01-30 22:22:00,33.0,26.0,-100.00,WNW,299,3.0,11.0,75,0.00,,,0.00,,2013-01-31 05:22:00,
2013-01-30 22:31:00,33.0,26.0,-100.00,WNW,299,3.0,11.0,75,0.00,,,0.00,,2013-01-31 05:31:00,
2013-01-30 22:41:00,33.0,26.0,-100.00,WNW,299,3.0,11.0,75,0.00,,,0.00,,2013-01-31 05:41:00,
2013-01-30 22:51:00,33.0,26.0,-100.00,WNW,299,3.0,11.0,75,0.00,,,0.00,,2013-01-31 05:51:00,